Selma, California
Current Conditions -  °F | °C
As of 4:53 PM on Thursday 18 Dec 2014 (Local Time) from KFAT Reporting Station
Scattered Clouds Scattered Clouds  
Wind Chill: 58°   Ceiling: Unl
Heat Index: 58°   Visibility: 10mi
Dew Point: 42°   Wind: 5mph
Humidity: 56%   Direction: 210°SSW
Pressure: 30.17"   Gusts: NA
Location:  36.57°N, 119.61°W
Report Text: KFAT 190053Z 21004KT 10SM SCT130 SCT200 14/06 A3017 RMK AO2 SLP214 T01440056
Loading
Personal Weather Stations






























Interactive Weather Map New forecast layout! Learn more

10-Day Weather Forecast

Advertisements
Track Severe Weather on mobile